Waterloo, IA (50701)

11:57 PM CST on December 24, 2014 (GMT -0600)
Columbus Dr - Waterloo | Change Station
CLOSE
Current Station
Personal Weather Station
Location: Waterloo, IA
Elevation: 910 ft
Nearby Weather Stations

Elev 910 ft 42.47 °N, 92.34 °W | Updated 2 seconds ago

Overcast
Overcast
30.6 °F
Feels Like 31 °F
N
2.9
Wind Variable Wind from WSW
Gusts 13.0 mph

Today
High -- | Low -- °F
--% Chance of Precip.
Yesterday
High -- | Low -- °F
Precip. -- in
7:37 AM 4:41 PM
Waxing Crescent, 13% visible
Pressure 29.72 in
Visibility 10.0 miles
Clouds Overcast 1000 ft
Windchill 31 °F
Dew Point 29 °F
Humidity 92%
Rainfall 0.07 in
Snow Depth Not available.
UV 0 out of 12
Pollen .10 out of 12
Air Quality Not available.
Flu Activity Not available.
METAR KALO 250454Z AUTO 24013KT 10SM UP OVC010 M01/M02 A2969 RMK AO2 UPB01E03B33 SLP063 P0000 T10061017

More Conditions Fewer Conditions

Pressure 29.72 in
Visibility 10.0 miles
Clouds Overcast 1000 ft
Windchill 31 °F
Dew Point 29 °F
Humidity 92%
Rainfall 0.07 in
Snow Depth Not available.
UV 0 out of 12
Pollen .10 out of 12
Air Quality Not available.
Flu Activity Not available.
METAR KALO 250454Z AUTO 24013KT 10SM UP OVC010 M01/M02 A2969 RMK AO2 UPB01E03B33 SLP063 P0000 T10061017

More Conditions Fewer Conditions

10-Day Weather Forecast

Almanac

Astronomy

Dec. 24, 2014 Rise Set
Actual Time
Civil Twilight
Nautical Twilight
Astronomical Twilight
Moon
Length of Visible Light
Length of Day
Tomorrow will be .
, % of the Moon is Illuminated

Today's Extremes

State Highs State Lows

Community

WunderPhotos

Upload Photos

1,780,244 photos uploaded!

WunderBlogs® & News

Nearby

Air Quality

  Air Quality AQ Index Pollutant
Not available.

Snow Depth

Station Depth Elevation

Earthquake Activity

City Distance Mag. Time & Date
Minimum magnitude displayed is 2.5.

Coastal Water Temperatures

Place Temperature

Nearby Weather Stations